CheckWX is a tool to help pilots better visualize weather data.  It is not intended as a substitute for an official pre-flight weather briefing.

01:18:03 UTC

KPTV METAR
Porterville Municipal Airport
Porterville, California, USA
Current

22 mins ago

KPTV 060056Z AUTO 31009KT 10SM CLR 37/08 A2984 RMK AO2 SLP101 T03720078
Observed
Jul-6 @ 00:56 UTC
Wind
  • 310° at 9 KTS
Visibility
10 SM
Flight Rules
VFR
Cloud Levels
  • Clear skies
Temperature
37°C / 99°F
Dewpoint
C / 46°F
Humidity
17%
Altimeter
29.84" Hg
Pressure
1010.52 hPa
Previous

1 hour ago

KPTV 052356Z AUTO 32007KT 10SM CLR 37/09 A2986 RMK AO2 SLP107 T03720094 10372 20294 56022
Observed
Jul-5 @ 23:56 UTC
Wind
  • 320° at 7 KTS
Visibility
10 SM
Flight Rules
VFR
Cloud Levels
  • Clear skies
Temperature
37°C / 99°F
Dewpoint
C / 48°F
Humidity
18%
Altimeter
29.86" Hg
Pressure
1011.22 hPa
Previous

2 hours ago

KPTV 052256Z AUTO 29009KT 10SM CLR 36/11 A2988 RMK AO2 SLP116 T03610106
Observed
Jul-5 @ 22:56 UTC
Wind
  • 290° at 9 KTS
Visibility
10 SM
Flight Rules
VFR
Cloud Levels
  • Clear skies
Temperature
36°C / 97°F
Dewpoint
11°C / 52°F
Humidity
22%
Altimeter
29.88" Hg
Pressure
1011.82 hPa